LiveATC.Net - Listen to live air traffic control over the Internet!


ICAO: KHIO  IATA: HIO   Airport: Portland-Hillsboro Airport
City: Portland   State/Province: Oregon
Country: United States   Continent: North America
KHIO METAR Weather: KHIO 161122Z AUTO 00000KT 1SM R13R/5000VP6000FT BR SCT001 BKN017 OVC028 03/03 A3036 RMK AO2 T00280028
KHIO Flight Activity (FlightAware)
KHIO Airport Info   (iFlightPlanner)
KHIO VFR Sectional Chart   (iFlightPlanner) 
KHIO IFR Low Chart   (iFlightPlanner) 

KHIO Ground/Tower
Feed Status: UP   Listeners: 0
Listen in your browser - HTML5 player (in browser, HTML5)
Click here to listen with your own player (launches your MP3 player)
Archive Access: KHIO Ground/Tower
FacilityFrequency
Hillsboro Ground121.700
Hillsboro Helicopter Patterns120.550
Hillsboro Tower119.300

NOTICE

Unauthorized use prohibited. See LiveATC.net Terms of Service


Airport/ARTCC Code
Frequency Search
(e.g., 124.400, 128.75)
Site-wide search
 


Browse Feeds
Top 50 Feeds
Coverage Map
Bad Weather Areas

LiveATC FAQ
Offer LiveATC feed
Contact LiveATC.net
Press Inquiries

LiveATC on iPhone
LiveATC on Android

Windows Phone
Windows 8/10

LiveATC Mobile
(Mobile browser)

ATC Audio Archives
Interesting Recordings

LiveATC Forums


Home Page
About LiveATC.net
Make a Donation
Terms of Use
Privacy Policy

Canadian Air Freqs

AIRMETs/SIGMETs

FAA Airport Status
Nat'l Airspace Status
Arrival Demand Charts


Server Software By:
Icecast.org
Liquidsoap